createdAt,value
2023-05-22T00:02:33.096Z,13.77
2023-05-22T00:07:34.673Z,16.98
2023-05-22T00:12:36.182Z,16.17
2023-05-22T00:17:38.029Z,13.32
2023-05-22T00:22:39.639Z,14.38
2023-05-22T00:27:41.114Z,13.98
2023-05-22T00:32:42.697Z,13.02
2023-05-22T00:37:46.077Z,12.85
2023-05-22T00:42:47.803Z,12.80
2023-05-22T00:47:49.352Z,12.73
2023-05-22T00:52:50.876Z,15.75
2023-05-22T00:57:52.433Z,12.43
2023-05-22T01:02:54.016Z,13.10
2023-05-22T01:07:57.192Z,12.65
2023-05-22T01:13:23.961Z,13.52
2023-05-22T01:18:37.613Z,12.68
2023-05-22T01:23:54.308Z,14.10
2023-05-22T01:29:14.530Z,12.15
2023-05-22T01:34:17.370Z,13.15
2023-05-22T01:39:19.542Z,14.27
2023-05-22T01:44:21.231Z,14.13
2023-05-22T01:49:22.698Z,11.52
2023-05-22T01:54:37.059Z,13.18
2023-05-22T01:59:45.985Z,18.33
2023-05-22T02:04:58.751Z,14.45
2023-05-22T02:10:01.324Z,18.35
2023-05-22T02:15:03.409Z,12.15
2023-05-22T02:20:05.610Z,18.13
2023-05-22T02:25:11.734Z,15.00
2023-05-22T02:30:14.794Z,12.18
2023-05-22T02:35:16.421Z,13.90
2023-05-22T02:40:18.190Z,13.65
2023-05-22T02:45:19.848Z,16.73
2023-05-22T02:50:21.306Z,17.40
2023-05-22T02:55:22.784Z,13.52
2023-05-22T03:00:24.394Z,12.70
2023-05-22T03:05:25.856Z,11.63
2023-05-22T03:10:27.524Z,12.88
2023-05-22T03:15:29.007Z,14.32
2023-05-22T03:20:31.181Z,13.85
2023-05-22T03:25:32.633Z,12.77
2023-05-22T03:30:34.142Z,12.90
2023-05-22T03:35:36.307Z,10.98
2023-05-22T03:40:38.027Z,10.75
2023-05-22T03:45:39.747Z,14.52
2023-05-22T03:50:41.498Z,11.55
2023-05-22T03:55:43.339Z,11.27
2023-05-22T04:00:46.311Z,13.80
2023-05-22T04:05:47.797Z,11.68
2023-05-22T04:10:49.297Z,10.68
2023-05-22T04:15:52.722Z,13.18
2023-05-22T04:20:54.324Z,13.82
2023-05-22T04:25:55.786Z,12.10
2023-05-22T04:31:00.217Z,10.27
2023-05-22T04:36:02.742Z,10.52
2023-05-22T04:41:04.406Z,14.80
2023-05-22T04:46:08.375Z,12.57
2023-05-22T04:51:10.065Z,11.25
2023-05-22T04:56:13.129Z,14.63
2023-05-22T05:01:16.658Z,11.77
2023-05-22T05:06:18.202Z,10.77
2023-05-22T05:11:19.730Z,8.68
2023-05-22T05:16:21.679Z,9.02
2023-05-22T05:21:23.246Z,8.55
2023-05-22T05:26:25.036Z,8.75
2023-05-22T05:31:26.585Z,7.68
2023-05-22T05:36:28.993Z,11.70
2023-05-22T05:41:30.734Z,10.65
2023-05-22T05:46:32.307Z,8.02
2023-05-22T05:51:33.814Z,9.65
2023-05-22T05:56:35.812Z,9.00
2023-05-22T06:01:38.627Z,10.70
2023-05-22T06:06:40.334Z,14.98
2023-05-22T06:11:41.799Z,9.00
2023-05-22T06:16:44.197Z,8.30
2023-05-22T06:21:45.666Z,8.20
2023-05-22T06:26:47.116Z,7.50
2023-05-22T06:31:48.721Z,7.97
2023-05-22T06:36:52.895Z,6.45
2023-05-22T06:41:54.346Z,8.88
2023-05-22T06:46:55.863Z,7.93
2023-05-22T06:51:57.342Z,8.35
2023-05-22T06:56:59.526Z,8.13
2023-05-22T07:02:01.339Z,7.25
2023-05-22T07:07:02.872Z,9.63
2023-05-22T07:12:05.573Z,12.43
2023-05-22T07:17:07.041Z,11.85
2023-05-22T07:22:08.478Z,8.63
2023-05-22T07:27:11.369Z,10.38
2023-05-22T07:32:12.885Z,9.05
2023-05-22T07:37:14.462Z,7.95
2023-05-22T07:42:16.066Z,11.23
2023-05-22T07:47:17.616Z,8.18
2023-05-22T07:52:19.355Z,8.55
2023-05-22T07:57:21.259Z,8.95
2023-05-22T08:02:23.122Z,7.85
2023-05-22T08:07:24.804Z,8.75
2023-05-22T08:12:26.293Z,6.13
2023-05-22T08:17:27.785Z,8.25
2023-05-22T08:22:30.134Z,6.63
2023-05-22T08:27:31.681Z,6.63
2023-05-22T08:32:33.171Z,6.90
2023-05-22T08:37:34.715Z,6.15
2023-05-22T08:42:36.950Z,8.10
2023-05-22T08:47:41.056Z,7.38
2023-05-22T08:52:52.762Z,8.02
2023-05-22T08:57:56.682Z,12.45
2023-05-22T09:02:59.028Z,6.55
2023-05-22T09:08:16.081Z,8.90
2023-05-22T09:13:31.749Z,9.95
2023-05-22T09:18:33.242Z,8.23
2023-05-22T09:23:35.068Z,5.78
2023-05-22T09:28:37.150Z,6.97
2023-05-22T09:33:38.619Z,6.32
2023-05-22T09:38:40.113Z,9.75
2023-05-22T09:43:50.565Z,7.15
2023-05-22T09:48:52.688Z,7.72
2023-05-22T09:54:03.394Z,9.60
2023-05-22T09:59:09.606Z,9.02
2023-05-22T10:04:14.305Z,7.95
2023-05-22T10:09:19.695Z,9.07
2023-05-22T10:14:22.454Z,9.90
2023-05-22T10:19:27.338Z,8.68
2023-05-22T10:24:29.569Z,8.27
2023-05-22T10:29:42.440Z,9.13
2023-05-22T10:34:54.072Z,8.35
2023-05-22T10:40:08.198Z,10.13
2023-05-22T10:45:11.177Z,13.27
2023-05-22T10:50:12.849Z,8.90
2023-05-22T10:55:14.422Z,10.07
2023-05-22T11:00:16.394Z,11.45
2023-05-22T11:05:25.657Z,9.00
2023-05-22T11:10:27.657Z,10.15
2023-05-22T11:15:32.512Z,9.48
2023-05-22T11:20:37.677Z,11.23
2023-05-22T11:25:41.123Z,10.05
2023-05-22T11:30:43.140Z,11.43
2023-05-22T11:35:47.603Z,14.63
2023-05-22T11:40:51.932Z,9.75
2023-05-22T11:45:53.441Z,8.95
2023-05-22T11:50:54.936Z,9.52
2023-05-22T11:55:56.406Z,9.02
2023-05-22T12:01:03.213Z,9.45
2023-05-22T12:06:05.112Z,10.93
2023-05-22T12:11:07.348Z,6.93
2023-05-22T12:16:19.897Z,11.40
2023-05-22T12:21:21.808Z,8.52
2023-05-22T12:26:23.337Z,9.77
2023-05-22T12:31:25.983Z,7.63
2023-05-22T12:36:33.500Z,9.23
2023-05-22T12:41:35.643Z,14.52
2023-05-22T12:46:37.259Z,13.60
2023-05-22T12:51:38.808Z,10.95
2023-05-22T12:56:40.336Z,7.72
2023-05-22T13:01:41.864Z,8.18
2023-05-22T13:06:43.374Z,7.55
2023-05-22T13:11:44.862Z,8.32
2023-05-22T13:16:46.402Z,7.03
2023-05-22T13:21:47.888Z,9.60
2023-05-22T13:26:49.373Z,7.63
2023-05-22T13:31:50.824Z,7.85
2023-05-22T13:36:52.304Z,8.10
2023-05-22T13:41:53.855Z,7.55
2023-05-22T13:46:55.534Z,10.50
2023-05-22T13:51:56.993Z,7.82
2023-05-22T13:56:59.940Z,8.95
2023-05-22T14:02:01.607Z,6.50
2023-05-22T14:07:03.188Z,11.35
2023-05-22T14:12:04.790Z,7.10
2023-05-22T14:17:07.809Z,6.43
2023-05-22T14:22:09.396Z,7.70
2023-05-22T14:27:11.151Z,7.88
2023-05-22T14:32:12.661Z,7.53
2023-05-22T14:37:14.147Z,8.80
2023-05-22T14:42:15.711Z,6.32
2023-05-22T14:47:17.188Z,7.35
2023-05-22T14:52:18.708Z,7.95
2023-05-22T14:57:20.302Z,8.27
2023-05-22T15:02:23.651Z,7.07
2023-05-22T15:07:39.643Z,7.82
2023-05-22T15:12:45.277Z,8.93
2023-05-22T15:17:46.760Z,7.03
2023-05-22T15:22:48.270Z,5.80
2023-05-22T15:27:49.887Z,8.82
2023-05-22T15:32:51.594Z,8.10
2023-05-22T15:37:53.119Z,7.10
2023-05-22T15:42:54.856Z,6.90
2023-05-22T15:47:56.786Z,6.95
2023-05-22T15:52:58.875Z,7.68
2023-05-22T15:58:01.726Z,8.30
2023-05-22T16:03:03.409Z,7.47
2023-05-22T16:08:10.479Z,7.85
2023-05-22T16:13:11.998Z,7.85
2023-05-22T16:18:13.608Z,9.50
2023-05-22T16:23:15.142Z,11.68
2023-05-22T16:28:17.161Z,10.02
2023-05-22T16:33:18.657Z,7.53
2023-05-22T16:38:20.133Z,14.82
2023-05-22T16:43:21.585Z,9.52
2023-05-22T16:48:23.102Z,9.30
2023-05-22T16:53:24.669Z,4.72
2023-05-22T16:58:26.522Z,4.38
2023-05-22T17:03:28.270Z,5.25
2023-05-22T17:08:30.094Z,4.95
2023-05-22T17:13:31.773Z,7.32
2023-05-22T17:18:33.290Z,4.25
2023-05-22T17:23:37.172Z,6.47
2023-05-22T17:28:38.642Z,4.88
2023-05-22T17:33:40.126Z,3.58
2023-05-22T17:38:41.605Z,3.58
2023-05-22T17:43:43.110Z,4.82
2023-05-22T17:48:44.599Z,6.28
2023-05-22T17:53:46.089Z,4.95
2023-05-22T17:58:47.566Z,4.95
2023-05-22T18:03:49.273Z,5.97
2023-05-22T18:08:50.973Z,4.50
2023-05-22T18:13:52.483Z,5.15
2023-05-22T18:18:53.964Z,3.97
2023-05-22T18:23:55.897Z,4.30
2023-05-22T18:28:57.404Z,4.93
2023-05-22T18:33:58.862Z,4.78
2023-05-22T18:39:00.464Z,6.18
2023-05-22T18:44:01.953Z,5.22
2023-05-22T18:49:04.013Z,6.05
2023-05-22T18:54:05.505Z,6.03
2023-05-22T18:59:06.976Z,5.90
2023-05-22T19:04:08.962Z,5.55
2023-05-22T19:09:10.463Z,5.93
2023-05-22T19:14:11.984Z,8.13
2023-05-22T19:19:14.773Z,6.35
2023-05-22T19:24:16.482Z,6.57
2023-05-22T19:29:17.949Z,7.15
2023-05-22T19:34:19.450Z,5.35
2023-05-22T19:39:20.930Z,7.45
2023-05-22T19:44:22.454Z,7.60
2023-05-22T19:49:23.959Z,6.47
2023-05-22T19:54:25.431Z,5.78
2023-05-22T19:59:27.087Z,6.03
2023-05-22T20:04:28.542Z,5.75
2023-05-22T20:09:30.014Z,6.35
2023-05-22T20:14:31.471Z,8.10
2023-05-22T20:19:34.468Z,5.72
2023-05-22T20:24:37.132Z,7.38
2023-05-22T20:29:38.711Z,7.40
2023-05-22T20:34:40.388Z,9.48
2023-05-22T20:39:41.825Z,6.70
2023-05-22T20:44:43.465Z,9.70
2023-05-22T20:49:44.934Z,8.18
2023-05-22T20:54:46.452Z,13.30
2023-05-22T20:59:47.906Z,8.07
2023-05-22T21:04:49.344Z,8.52
2023-05-22T21:09:50.970Z,8.38
2023-05-22T21:14:52.474Z,8.05
2023-05-22T21:19:54.052Z,7.35
2023-05-22T21:24:55.720Z,8.40
2023-05-22T21:29:57.296Z,8.93
2023-05-22T21:34:58.818Z,8.13
2023-05-22T21:40:00.348Z,7.28
2023-05-22T21:45:01.790Z,8.77
2023-05-22T21:50:04.991Z,11.45
2023-05-22T21:55:07.330Z,7.88
2023-05-22T22:00:09.299Z,9.13
2023-05-22T22:05:13.616Z,7.57
2023-05-22T22:10:15.060Z,10.00
2023-05-22T22:15:16.607Z,13.82
2023-05-22T22:20:24.802Z,8.70
2023-05-22T22:25:32.018Z,10.73
2023-05-22T22:30:33.479Z,9.15
2023-05-22T22:35:35.079Z,12.27
2023-05-22T22:40:36.537Z,8.63
2023-05-22T22:45:40.040Z,9.80
2023-05-22T22:50:41.959Z,10.20
2023-05-22T22:55:43.802Z,10.80
2023-05-22T23:00:45.316Z,10.35
2023-05-22T23:05:46.844Z,8.77
2023-05-22T23:10:48.323Z,9.20
2023-05-22T23:15:49.997Z,8.90
2023-05-22T23:20:51.456Z,8.65
2023-05-22T23:25:52.891Z,15.50
2023-05-22T23:30:54.825Z,9.27
2023-05-22T23:35:57.403Z,11.40
2023-05-22T23:40:58.910Z,10.27
2023-05-22T23:46:00.456Z,12.00
2023-05-22T23:51:02.799Z,13.43
2023-05-22T23:56:04.583Z,16.52
